CheckWX is a tool to help pilots better visualize weather data.  It is not intended as a substitute for an official pre-flight weather briefing.

09:11:43 UTC

LFPV METAR
Villacoublay-Vélizy (BA 107) Air Base Airport
Villacoublay/Vélizy, France
Current

42 mins ago

LFPV 210830Z AUTO 15006KT 120V180 CAVOK 17/07 Q1015 NOSIG
Observed
Sep-21 @ 08:30 UTC
Wind
  • 150° at 6 KTS
Visibility
10,000+ meters
Flight Rules
VFR
Cloud Levels
  • Clear skies
Temperature
17°C / 63°F
Dewpoint
C / 45°F
Humidity
52%
Altimeter
29.97" Hg
Pressure
1014.92 hPa
Previous

1 hour ago

LFPV 210800Z AUTO 13006KT CAVOK 16/07 Q1015
Observed
Sep-21 @ 08:00 UTC
Wind
  • 130° at 6 KTS
Visibility
10,000+ meters
Flight Rules
VFR
Cloud Levels
  • Clear skies
Temperature
16°C / 61°F
Dewpoint
C / 45°F
Humidity
55%
Altimeter
29.97" Hg
Pressure
1014.92 hPa
Previous

2 hours ago

LFPV 210730Z AUTO 11004KT 070V150 CAVOK 14/05 Q1015 NOSIG
Observed
Sep-21 @ 07:30 UTC
Wind
  • 110° at 4 KTS
Visibility
10,000+ meters
Flight Rules
VFR
Cloud Levels
  • Clear skies
Temperature
14°C / 57°F
Dewpoint
C / 41°F
Humidity
55%
Altimeter
29.97" Hg
Pressure
1014.92 hPa